createdAt,value
2019-02-26T00:00:07.639Z,102712.39
2019-02-26T00:02:41.550Z,102706.30
2019-02-26T00:05:12.612Z,102712.42
2019-02-26T00:07:44.356Z,102714.17
2019-02-26T00:10:16.219Z,102728.55
2019-02-26T00:12:47.137Z,102742.52
2019-02-26T00:15:18.053Z,102750.36
2019-02-26T00:17:50.770Z,102756.89
2019-02-26T00:20:21.610Z,102745.56
2019-02-26T00:22:53.566Z,102746.02
2019-02-26T00:25:25.126Z,102735.98
2019-02-26T00:27:56.902Z,102721.17
2019-02-26T00:30:28.749Z,102719.42
2019-02-26T00:33:02.505Z,102708.96
2019-02-26T00:35:32.409Z,102711.58
2019-02-26T00:38:03.305Z,102713.77
2019-02-26T00:40:36.532Z,102704.63
2019-02-26T00:43:06.915Z,102715.08
2019-02-26T00:45:39.061Z,102711.59
2019-02-26T00:48:10.092Z,102713.34
2019-02-26T00:50:41.049Z,102715.09
2019-02-26T00:53:11.942Z,102716.40
2019-02-26T00:55:42.863Z,102700.27
2019-02-26T00:58:13.774Z,102691.55
2019-02-26T01:00:44.701Z,102685.89
2019-02-26T01:03:15.592Z,102675.86
2019-02-26T01:05:46.553Z,102671.95
2019-02-26T01:08:19.623Z,102668.92
2019-02-26T01:10:50.162Z,102664.13
2019-02-26T01:13:22.412Z,102665.00
2019-02-26T01:15:53.962Z,102678.47
2019-02-26T01:18:26.779Z,102682.41
2019-02-26T01:21:00.295Z,102688.93
2019-02-26T01:23:31.685Z,102690.69
2019-02-26T01:26:02.601Z,102692.00
2019-02-26T01:28:33.568Z,102693.72
2019-02-26T01:31:07.282Z,102707.23
2019-02-26T01:33:38.034Z,102705.94
2019-02-26T01:36:08.984Z,102703.73
2019-02-26T01:38:41.652Z,102712.45
2019-02-26T01:41:13.866Z,102716.81
2019-02-26T01:43:45.082Z,102721.15
2019-02-26T01:46:18.226Z,102724.21
2019-02-26T01:48:48.613Z,102718.53
2019-02-26T01:51:21.801Z,102718.11
2019-02-26T01:53:53.682Z,102718.98
2019-02-26T01:56:24.658Z,102732.48
2019-02-26T01:58:56.925Z,102732.91
2019-02-26T02:01:28.174Z,102737.26
2019-02-26T02:03:59.103Z,102742.92
2019-02-26T02:06:30.822Z,102744.68
2019-02-26T02:09:02.605Z,102735.95
2019-02-26T02:11:35.731Z,102720.72
2019-02-26T02:14:08.061Z,102725.48
2019-02-26T02:16:38.837Z,102740.30
2019-02-26T02:19:09.786Z,102734.65
2019-02-26T02:21:40.790Z,102734.22
2019-02-26T02:24:15.075Z,102732.90
2019-02-26T02:26:48.236Z,102730.73
2019-02-26T02:29:19.192Z,102730.28
2019-02-26T02:31:52.333Z,102718.09
2019-02-26T02:34:27.021Z,102728.97
2019-02-26T02:36:57.321Z,102717.65
2019-02-26T02:39:29.218Z,102705.88
2019-02-26T02:42:00.312Z,102697.63
2019-02-26T02:44:31.214Z,102696.31
2019-02-26T02:47:04.283Z,102701.09
2019-02-26T02:49:37.461Z,102690.63
2019-02-26T02:52:09.593Z,102695.00
2019-02-26T02:54:41.207Z,102701.13
2019-02-26T02:57:12.700Z,102710.72
2019-02-26T02:59:43.594Z,102714.63
2019-02-26T03:02:17.414Z,102713.33
2019-02-26T03:04:47.275Z,102709.87
2019-02-26T03:07:20.803Z,102722.06
2019-02-26T03:09:50.862Z,102719.86
2019-02-26T03:12:21.786Z,102732.52
2019-02-26T03:14:52.678Z,102730.77
2019-02-26T03:17:23.608Z,102734.25
2019-02-26T03:19:56.017Z,102741.23
2019-02-26T03:22:27.171Z,102734.27
2019-02-26T03:24:59.586Z,102734.69
2019-02-26T03:27:33.639Z,102744.28
2019-02-26T03:30:03.998Z,102739.48
2019-02-26T03:32:36.639Z,102746.47
2019-02-26T03:35:10.164Z,102740.80
2019-02-26T03:37:40.993Z,102745.14
2019-02-26T03:40:13.693Z,102744.72
2019-02-26T03:42:46.279Z,102752.14
2019-02-26T03:45:23.607Z,102751.70
2019-02-26T03:47:50.319Z,102747.77
2019-02-26T03:50:21.223Z,102742.98
2019-02-26T03:52:52.641Z,102736.00
2019-02-26T03:55:23.758Z,102756.48
2019-02-26T03:57:57.012Z,102748.22
2019-02-26T04:00:27.276Z,102756.50
2019-02-26T04:02:58.233Z,102749.95
2019-02-26T04:05:29.136Z,102736.87
2019-02-26T04:08:01.689Z,102736.45
2019-02-26T04:10:32.775Z,102739.95
2019-02-26T04:13:03.803Z,102746.91
2019-02-26T04:15:36.407Z,102731.67
2019-02-26T04:18:07.616Z,102741.23
2019-02-26T04:20:43.445Z,102748.66
2019-02-26T04:23:13.439Z,102752.57
2019-02-26T04:25:54.169Z,102739.92
2019-02-26T04:28:36.498Z,102743.41
2019-02-26T04:31:27.567Z,102742.96
2019-02-26T04:34:17.772Z,102747.33
2019-02-26T04:36:54.553Z,102760.40
2019-02-26T04:39:47.504Z,102760.40
2019-02-26T04:42:45.500Z,102765.63
2019-02-26T04:45:26.061Z,102760.39
2019-02-26T04:48:00.764Z,102759.95
2019-02-26T04:50:35.683Z,102760.38
2019-02-26T04:53:11.040Z,102746.03
2019-02-26T04:55:44.709Z,102744.73
2019-02-26T04:58:15.559Z,102744.70
2019-02-26T05:00:47.217Z,102740.79
2019-02-26T05:03:20.186Z,102741.22
2019-02-26T05:05:53.740Z,102742.97
2019-02-26T05:08:23.659Z,102736.00
2019-02-26T05:10:57.290Z,102739.04
2019-02-26T05:13:29.317Z,102748.19
2019-02-26T05:16:00.108Z,102747.33
2019-02-26T05:18:33.712Z,102754.28
2019-02-26T05:21:05.255Z,102742.08
2019-02-26T05:23:36.859Z,102732.08
2019-02-26T05:26:11.007Z,102732.95
2019-02-26T05:28:41.833Z,102731.63
2019-02-26T05:31:15.132Z,102730.31
2019-02-26T05:33:46.813Z,102738.61
2019-02-26T05:36:18.611Z,102737.30
2019-02-26T05:38:51.732Z,102737.73
2019-02-26T05:41:22.439Z,102732.05
2019-02-26T05:43:56.055Z,102732.05
2019-02-26T05:46:27.489Z,102733.81
2019-02-26T05:48:58.589Z,102742.06
2019-02-26T05:51:32.480Z,102742.95
2019-02-26T05:54:05.693Z,102760.38
2019-02-26T05:56:37.381Z,102764.73
2019-02-26T05:59:09.513Z,102769.08
2019-02-26T06:01:40.329Z,102766.02
2019-02-26T06:04:12.297Z,102758.20
2019-02-26T06:06:44.220Z,102749.50
2019-02-26T06:09:15.707Z,102752.55
2019-02-26T06:11:49.882Z,102736.89
2019-02-26T06:14:19.266Z,102749.94
2019-02-26T06:16:52.618Z,102744.71
2019-02-26T06:19:25.711Z,102746.44
2019-02-26T06:21:56.713Z,102742.96
2019-02-26T06:24:29.579Z,102743.77
2019-02-26T06:27:00.339Z,102746.34
2019-02-26T06:29:32.637Z,102731.86
2019-02-26T06:32:12.580Z,102737.45
2019-02-26T06:34:43.480Z,102745.19
2019-02-26T06:37:24.186Z,102746.81
2019-02-26T06:39:57.363Z,102742.77
2019-02-26T06:42:28.346Z,102739.50
2019-02-26T06:45:00.361Z,102744.99
2019-02-26T06:47:33.226Z,102751.34
2019-02-26T06:50:07.555Z,102749.34
2019-02-26T06:52:39.924Z,102752.63
2019-02-26T06:55:12.004Z,102751.08
2019-02-26T06:57:46.335Z,102760.97
2019-02-26T07:00:21.793Z,102766.88
2019-02-26T07:02:51.853Z,102764.12
2019-02-26T07:05:24.492Z,102755.52
2019-02-26T07:07:57.032Z,102769.73
2019-02-26T07:10:29.537Z,102781.27
2019-02-26T07:13:02.138Z,102791.98
2019-02-26T07:15:33.416Z,102803.08
2019-02-26T07:18:07.140Z,102790.45
2019-02-26T07:20:39.991Z,102787.51
2019-02-26T07:23:10.597Z,102782.84
2019-02-26T07:25:44.090Z,102777.12
2019-02-26T07:28:15.698Z,102776.23
2019-02-26T07:30:47.758Z,102784.28
2019-02-26T07:33:18.721Z,102780.37
2019-02-26T07:35:49.599Z,102785.36
2019-02-26T07:38:21.274Z,102784.89
2019-02-26T07:40:54.326Z,102782.29
2019-02-26T07:43:25.824Z,102786.27
2019-02-26T07:45:56.732Z,102791.70
2019-02-26T07:48:29.466Z,102810.49
2019-02-26T07:51:00.381Z,102810.91
2019-02-26T07:53:31.327Z,102815.81
2019-02-26T07:56:04.514Z,102809.14
2019-02-26T07:58:36.081Z,102818.30
2019-02-26T08:01:07.594Z,102813.13
2019-02-26T08:03:38.520Z,102816.14
2019-02-26T08:06:11.644Z,102811.64
2019-02-26T08:08:44.298Z,102811.13
2019-02-26T08:11:14.953Z,102804.38
2019-02-26T08:13:45.945Z,102810.19
2019-02-26T08:16:18.365Z,102801.97
2019-02-26T08:18:51.662Z,102820.91
2019-02-26T08:21:24.351Z,102831.86
2019-02-26T08:23:54.719Z,102837.23
2019-02-26T08:26:26.746Z,102836.56
2019-02-26T08:29:00.054Z,102850.14
2019-02-26T08:31:30.629Z,102846.22
2019-02-26T08:34:01.571Z,102839.03
2019-02-26T08:36:32.457Z,102835.75
2019-02-26T08:39:05.866Z,102828.11
2019-02-26T08:41:36.756Z,102834.34
2019-02-26T08:44:07.764Z,102852.97
2019-02-26T08:46:39.789Z,102847.02
2019-02-26T08:49:13.278Z,102853.70
2019-02-26T08:51:43.866Z,102846.97
2019-02-26T08:54:20.810Z,102854.47
2019-02-26T08:56:47.395Z,102859.09
2019-02-26T08:59:20.163Z,102863.72
2019-02-26T09:01:51.151Z,102873.59
2019-02-26T09:04:23.839Z,102875.53
2019-02-26T09:06:57.067Z,102880.22
2019-02-26T09:09:28.223Z,102875.94
2019-02-26T09:12:01.201Z,102866.00
2019-02-26T09:14:37.323Z,102870.91
2019-02-26T09:17:05.455Z,102862.53
2019-02-26T09:19:38.057Z,102857.51
2019-02-26T09:22:11.782Z,102859.27
2019-02-26T09:24:41.794Z,102873.55
2019-02-26T09:27:12.683Z,102866.70
2019-02-26T09:29:48.849Z,102872.93
2019-02-26T09:32:18.241Z,102873.25
2019-02-26T09:34:48.914Z,102881.61
2019-02-26T09:37:19.811Z,102882.00
2019-02-26T09:39:52.460Z,102888.16
2019-02-26T09:42:25.589Z,102886.52
2019-02-26T09:44:57.755Z,102891.05
2019-02-26T09:47:32.844Z,102899.67
2019-02-26T09:50:02.223Z,102908.66
2019-02-26T09:52:33.123Z,102916.64
2019-02-26T09:55:05.054Z,102922.42
2019-02-26T09:57:36.016Z,102921.50
2019-02-26T10:00:14.656Z,102918.83
2019-02-26T10:02:47.088Z,102920.08
2019-02-26T10:05:18.491Z,102923.48
2019-02-26T10:07:52.298Z,102928.96
2019-02-26T10:10:22.809Z,102939.26
2019-02-26T10:12:56.284Z,102935.13
2019-02-26T10:15:26.333Z,102930.50
2019-02-26T10:17:59.553Z,102931.22
2019-02-26T10:20:31.867Z,102939.14
2019-02-26T10:23:05.655Z,102941.29
2019-02-26T10:25:38.713Z,102940.52
2019-02-26T10:28:09.617Z,102938.44
2019-02-26T10:30:41.688Z,102937.48
2019-02-26T10:33:12.862Z,102955.53
2019-02-26T10:35:45.587Z,102962.69
2019-02-26T10:38:16.478Z,102962.69
2019-02-26T10:40:53.790Z,102962.80
2019-02-26T10:43:20.841Z,102970.49
2019-02-26T10:45:54.388Z,102976.55
2019-02-26T10:48:25.171Z,102976.66
2019-02-26T10:50:57.023Z,102976.27
2019-02-26T10:53:27.884Z,102967.14
2019-02-26T10:55:58.820Z,102985.96
2019-02-26T10:58:29.722Z,102980.89
2019-02-26T11:01:02.499Z,102981.75
2019-02-26T11:03:37.899Z,102984.73
2019-02-26T11:06:07.385Z,102970.12
2019-02-26T11:08:38.520Z,102974.52
2019-02-26T11:11:10.551Z,102970.21
2019-02-26T11:13:50.978Z,102967.62
2019-02-26T11:16:25.145Z,102956.02
2019-02-26T11:18:55.524Z,102953.03
2019-02-26T11:21:26.448Z,102950.83
2019-02-26T11:23:58.465Z,102959.31
2019-02-26T11:26:30.562Z,102957.12
2019-02-26T11:29:02.559Z,102953.48
2019-02-26T11:31:33.537Z,102954.80
2019-02-26T11:34:09.239Z,102960.14
2019-02-26T11:36:38.973Z,102951.66
2019-02-26T11:39:11.933Z,102952.00
2019-02-26T11:41:43.202Z,102946.49
2019-02-26T11:44:19.025Z,102952.22
2019-02-26T11:46:49.353Z,102953.20
2019-02-26T11:49:21.659Z,102951.45
2019-02-26T11:51:52.124Z,102941.73
2019-02-26T11:54:23.021Z,102942.12
2019-02-26T11:56:53.943Z,102951.77
2019-02-26T11:59:24.853Z,102954.20
2019-02-26T12:01:57.280Z,102953.47
2019-02-26T12:04:28.412Z,102939.06
2019-02-26T12:07:01.790Z,102947.38
2019-02-26T12:12:06.217Z,102942.31
2019-02-26T12:14:38.037Z,102945.78
2019-02-26T12:17:09.802Z,102959.38
2019-02-26T12:19:40.703Z,102958.14
2019-02-26T12:22:11.639Z,102962.50
2019-02-26T12:24:42.533Z,102962.44
2019-02-26T12:27:18.087Z,102971.34
2019-02-26T12:29:48.305Z,102966.94
2019-02-26T12:32:19.973Z,102966.05
2019-02-26T12:34:51.547Z,102960.09
2019-02-26T12:37:22.429Z,102951.36
2019-02-26T12:39:55.472Z,102963.58
2019-02-26T12:42:25.984Z,102962.73
2019-02-26T12:44:58.234Z,102968.27
2019-02-26T12:47:29.550Z,102968.27
2019-02-26T12:50:01.988Z,102973.92
2019-02-26T12:52:33.042Z,102969.88
2019-02-26T12:55:08.012Z,102971.20
2019-02-26T12:57:37.358Z,102969.13
2019-02-26T13:00:20.052Z,102972.66
2019-02-26T13:02:52.315Z,102971.77
2019-02-26T13:05:23.484Z,102980.70
2019-02-26T13:07:54.388Z,102978.06
2019-02-26T13:10:26.257Z,102976.02
2019-02-26T13:15:29.743Z,102972.36
2019-02-26T13:18:00.709Z,102966.73
2019-02-26T13:20:31.605Z,102964.98
2019-02-26T13:23:16.407Z,102962.40
2019-02-26T13:25:35.115Z,102955.35
2019-02-26T13:28:06.032Z,102962.34
2019-02-26T13:30:36.918Z,102957.02
2019-02-26T13:33:10.872Z,102961.13
2019-02-26T13:35:42.791Z,102962.66
2019-02-26T13:38:14.157Z,102973.66
2019-02-26T13:40:45.099Z,102970.62
2019-02-26T13:43:16.886Z,102972.82
2019-02-26T13:45:47.779Z,102971.59
2019-02-26T13:48:20.339Z,102954.50
2019-02-26T13:50:51.252Z,102951.28
2019-02-26T13:53:22.159Z,102948.31
2019-02-26T13:55:53.050Z,102946.98
2019-02-26T13:58:24.059Z,102957.13
2019-02-26T14:00:54.950Z,102962.89
2019-02-26T14:03:25.900Z,102964.61
2019-02-26T14:05:56.790Z,102961.13
2019-02-26T14:08:27.709Z,102962.76
2019-02-26T14:10:58.602Z,102960.08
2019-02-26T14:13:29.528Z,102968.87
2019-02-26T14:16:00.411Z,102962.28
2019-02-26T14:18:31.359Z,102961.48
2019-02-26T14:21:02.255Z,102962.89
2019-02-26T14:23:35.162Z,102965.48
2019-02-26T14:26:05.971Z,102962.14
2019-02-26T14:28:36.939Z,102965.57
2019-02-26T14:31:07.828Z,102973.00
2019-02-26T14:33:39.142Z,102972.73
2019-02-26T14:36:10.043Z,102965.79
2019-02-26T14:38:40.954Z,102960.47
2019-02-26T14:41:11.856Z,102958.67
2019-02-26T14:43:43.806Z,102956.88
2019-02-26T14:46:14.691Z,102954.72
2019-02-26T14:48:45.674Z,102951.64
2019-02-26T14:51:17.765Z,102964.83
2019-02-26T14:53:49.246Z,102970.22
2019-02-26T14:56:20.249Z,102965.79
2019-02-26T14:58:51.164Z,102967.59
2019-02-26T15:01:24.592Z,102970.39
2019-02-26T15:03:59.647Z,102973.06
2019-02-26T15:06:30.356Z,102976.17
2019-02-26T15:09:01.284Z,102984.56
2019-02-26T15:11:32.251Z,102974.14
2019-02-26T15:14:03.453Z,102983.36
2019-02-26T15:16:34.354Z,102979.09
2019-02-26T15:19:05.572Z,102983.48
2019-02-26T15:21:36.471Z,102983.08
2019-02-26T15:24:07.404Z,102988.78
2019-02-26T15:26:38.319Z,102985.71
2019-02-26T15:29:09.367Z,102989.23
2019-02-26T15:31:40.261Z,102993.77
2019-02-26T15:34:11.218Z,102995.08
2019-02-26T15:36:42.106Z,102994.64
2019-02-26T15:39:13.034Z,102989.45
2019-02-26T15:41:43.926Z,102995.59
2019-02-26T15:44:15.677Z,102995.63
2019-02-26T15:46:46.666Z,103004.48
2019-02-26T15:49:17.632Z,103006.78
2019-02-26T15:51:48.774Z,103003.84
2019-02-26T15:54:21.173Z,103015.32
2019-02-26T15:56:52.365Z,103011.88
2019-02-26T15:59:23.298Z,103020.27
2019-02-26T16:01:55.538Z,103022.59
2019-02-26T16:04:27.029Z,103025.28
2019-02-26T16:06:58.202Z,103032.45
2019-02-26T16:09:29.161Z,103030.34
2019-02-26T16:12:00.147Z,103026.95
2019-02-26T16:14:31.069Z,103028.34
2019-02-26T16:17:01.975Z,103032.36
2019-02-26T16:19:32.956Z,103032.44
2019-02-26T16:22:03.871Z,103037.34
2019-02-26T16:24:34.821Z,103038.28
2019-02-26T16:27:05.734Z,103036.18
2019-02-26T16:29:36.675Z,103044.56
2019-02-26T16:32:07.794Z,103041.57
2019-02-26T16:34:38.754Z,103042.94
2019-02-26T16:37:09.726Z,103051.34
2019-02-26T16:39:40.942Z,103048.33
2019-02-26T16:42:12.316Z,103056.30
2019-02-26T16:44:44.046Z,103063.34
2019-02-26T16:47:15.302Z,103067.80
2019-02-26T16:49:46.801Z,103072.20
2019-02-26T16:52:17.707Z,103069.20
2019-02-26T16:54:48.720Z,103073.17
2019-02-26T16:57:19.638Z,103070.59
2019-02-26T16:59:50.578Z,103070.61
2019-02-26T17:02:21.654Z,103068.03
2019-02-26T17:04:52.607Z,103076.39
2019-02-26T17:07:23.510Z,103075.09
2019-02-26T17:09:55.675Z,103075.98
2019-02-26T17:12:29.143Z,103068.58
2019-02-26T17:14:59.703Z,103071.22
2019-02-26T17:17:30.608Z,103069.08
2019-02-26T17:20:01.569Z,103082.19
2019-02-26T17:22:32.469Z,103073.00
2019-02-26T17:25:03.884Z,103080.42
2019-02-26T17:27:36.595Z,103081.31
2019-02-26T17:30:12.637Z,103079.59
2019-02-26T17:32:43.549Z,103076.95
2019-02-26T17:35:15.871Z,103069.99
2019-02-26T17:37:46.777Z,103083.09
2019-02-26T17:40:21.773Z,103078.73
2019-02-26T17:42:54.267Z,103089.19
2019-02-26T17:45:37.193Z,103087.45
2019-02-26T17:48:08.842Z,103081.33
2019-02-26T17:50:43.303Z,103075.69
2019-02-26T17:53:13.727Z,103069.55
2019-02-26T17:55:44.659Z,103068.23
2019-02-26T17:58:15.567Z,103068.23
2019-02-26T18:00:48.147Z,103072.58
2019-02-26T18:03:19.053Z,103069.11
2019-02-26T18:05:51.568Z,103070.84
2019-02-26T18:08:22.637Z,103064.73
2019-02-26T18:10:53.560Z,103064.70
2019-02-26T18:13:24.462Z,103063.40
2019-02-26T18:15:56.840Z,103072.98
2019-02-26T18:18:27.983Z,103074.27
2019-02-26T18:20:58.954Z,103083.44
2019-02-26T18:23:29.855Z,103076.88
2019-02-26T18:26:00.791Z,103071.66
2019-02-26T18:28:31.703Z,103064.69
2019-02-26T18:31:02.647Z,103064.69
2019-02-26T18:33:35.473Z,103076.45
2019-02-26T18:36:06.227Z,103068.56
2019-02-26T18:38:37.154Z,103069.42
2019-02-26T18:41:08.089Z,103070.30
2019-02-26T18:43:38.988Z,103076.39
2019-02-26T18:46:09.932Z,103081.19
2019-02-26T18:48:40.838Z,103080.31
2019-02-26T18:51:11.836Z,103086.83
2019-02-26T18:53:44.597Z,103082.45
2019-02-26T18:56:15.407Z,103087.70
2019-02-26T18:58:48.754Z,103078.09
2019-02-26T19:01:18.941Z,103078.94
2019-02-26T19:03:49.925Z,103078.52
2019-02-26T19:06:20.923Z,103080.27
2019-02-26T19:08:51.848Z,103090.72
2019-02-26T19:11:25.377Z,103092.45
2019-02-26T19:13:55.475Z,103088.98
2019-02-26T19:16:26.418Z,103102.46
2019-02-26T19:18:57.329Z,103113.78
2019-02-26T19:21:28.277Z,103114.63
2019-02-26T19:23:59.191Z,103117.23
2019-02-26T19:26:30.195Z,103119.84
2019-02-26T19:29:01.110Z,103115.88
2019-02-26T19:31:32.126Z,103125.02
2019-02-26T19:34:03.025Z,103117.58
2019-02-26T19:36:33.982Z,103121.92
2019-02-26T19:39:06.276Z,103123.23
2019-02-26T19:41:37.221Z,103122.78
2019-02-26T19:44:08.126Z,103122.33
2019-02-26T19:46:39.869Z,103115.77
2019-02-26T19:49:10.783Z,103114.89
2019-02-26T19:51:41.750Z,103119.66
2019-02-26T19:54:12.674Z,103120.09
2019-02-26T19:56:43.661Z,103114.84
2019-02-26T19:59:14.563Z,103114.37
2019-02-26T20:01:45.857Z,103117.41
2019-02-26T20:04:16.898Z,103123.46
2019-02-26T20:06:47.885Z,103123.43
2019-02-26T20:09:19.033Z,103123.85
2019-02-26T20:11:50.005Z,103124.73
2019-02-26T20:14:21.727Z,103119.05
2019-02-26T20:16:52.859Z,103113.80
2019-02-26T20:19:23.787Z,103115.53
2019-02-26T20:21:54.759Z,103118.14
2019-02-26T20:24:25.667Z,103112.45
2019-02-26T20:26:59.394Z,103104.59
2019-02-26T20:29:30.308Z,103108.08
2019-02-26T20:32:01.323Z,103104.59
2019-02-26T20:34:32.234Z,103108.05
2019-02-26T20:37:03.297Z,103105.37
2019-02-26T20:39:34.210Z,103098.38
2019-02-26T20:42:05.762Z,103098.77
2019-02-26T20:44:42.428Z,103097.89
2019-02-26T20:47:13.540Z,103103.10
2019-02-26T20:49:46.349Z,103100.50
2019-02-26T20:52:17.091Z,103096.50
2019-02-26T20:54:47.999Z,103096.05
2019-02-26T20:57:18.943Z,103095.16
2019-02-26T20:59:51.892Z,103086.45
2019-02-26T21:02:22.493Z,103082.11
2019-02-26T21:04:53.403Z,103075.13
2019-02-26T21:07:25.099Z,103072.09
2019-02-26T21:10:03.538Z,103073.36
2019-02-26T21:12:29.376Z,103068.56
2019-02-26T21:15:00.363Z,103077.66
2019-02-26T21:17:31.312Z,103077.20
2019-02-26T21:20:02.215Z,103082.84
2019-02-26T21:22:33.984Z,103084.56
2019-02-26T21:25:08.501Z,103085.83
2019-02-26T21:27:39.043Z,103083.64
2019-02-26T21:30:13.178Z,103085.31
2019-02-26T21:32:44.132Z,103078.75
2019-02-26T21:35:15.044Z,103087.42
2019-02-26T21:37:46.012Z,103087.42
2019-02-26T21:40:17.530Z,103092.64
2019-02-26T21:42:48.489Z,103080.01
2019-02-26T21:45:19.492Z,103077.78
2019-02-26T21:47:51.231Z,103071.69
2019-02-26T21:50:22.970Z,103075.13
2019-02-26T21:53:01.212Z,103068.98
2019-02-26T21:55:26.719Z,103061.53
2019-02-26T21:57:57.657Z,103059.80
2019-02-26T22:00:28.576Z,103049.33
2019-02-26T22:03:00.087Z,103045.84
2019-02-26T22:05:31.174Z,103044.95
2019-02-26T22:08:02.138Z,103038.86
2019-02-26T22:10:33.056Z,103039.27
2019-02-26T22:13:03.996Z,103040.15
2019-02-26T22:15:36.180Z,103039.27
2019-02-26T22:18:07.235Z,103040.58
2019-02-26T22:20:38.156Z,103034.48
2019-02-26T22:23:09.161Z,103042.30
2019-02-26T22:25:40.069Z,103037.50
2019-02-26T22:28:11.011Z,103029.22
2019-02-26T22:30:41.925Z,103019.58
2019-02-26T22:33:12.871Z,103008.27
2019-02-26T22:35:43.785Z,103010.87
2019-02-26T22:38:15.501Z,103019.90
2019-02-26T22:40:47.030Z,103017.70
2019-02-26T22:43:17.968Z,103022.91
2019-02-26T22:45:48.880Z,103018.97
2019-02-26T22:48:20.830Z,103007.66
2019-02-26T22:50:51.737Z,103015.89
2019-02-26T22:53:24.215Z,103006.30
2019-02-26T22:55:55.131Z,103015.37
2019-02-26T22:58:26.067Z,103011.41
2019-02-26T23:01:13.395Z,103005.31
2019-02-26T23:03:46.054Z,103007.02
2019-02-26T23:06:17.752Z,103007.02
2019-02-26T23:08:48.903Z,103011.30
2019-02-26T23:11:20.473Z,103004.33
